sensor_id;sensor_type;location;lat;lon;timestamp;pressure;altitude;pressure_sealevel;temperature;humidity
60099;BME280;62818;49.394;8.686;2023-02-23T00:01:00;100051.31;;;10.93;100.00
60099;BME280;62818;49.394;8.686;2023-02-23T00:02:00;100046.53;;;11.03;100.00
60099;BME280;62818;49.394;8.686;2023-02-23T00:03:05;100048.50;;;10.94;100.00
60099;BME280;62818;49.394;8.686;2023-02-23T00:04:05;100050.59;;;10.99;100.00
60099;BME280;62818;49.394;8.686;2023-02-23T00:05:07;100053.47;;;11.04;100.00
60099;BME280;62818;49.394;8.686;2023-02-23T00:06:09;100046.84;;;10.93;100.00
60099;BME280;62818;49.394;8.686;2023-02-23T00:07:10;100047.31;;;10.97;100.00
60099;BME280;62818;49.394;8.686;2023-02-23T00:08:10;100044.38;;;10.92;100.00
60099;BME280;62818;49.394;8.686;2023-02-23T00:09:11;100045.84;;;10.94;100.00
60099;BME280;62818;49.394;8.686;2023-02-23T00:10:22;100045.84;;;10.94;100.00
60099;BME280;62818;49.394;8.686;2023-02-23T00:11:29;100046.09;;;10.99;100.00
60099;BME280;62818;49.394;8.686;2023-02-23T00:12:30;100045.13;;;10.86;100.00
60099;BME280;62818;49.394;8.686;2023-02-23T00:13:32;100045.28;;;10.84;100.00
60099;BME280;62818;49.394;8.686;2023-02-23T00:14:37;100042.63;;;10.84;100.00
60099;BME280;62818;49.394;8.686;2023-02-23T00:15:38;100044.38;;;10.92;100.00
60099;BME280;62818;49.394;8.686;2023-02-23T00:16:39;100041.38;;;10.80;100.00
60099;BME280;62818;49.394;8.686;2023-02-23T00:17:44;100046.94;;;10.85;100.00
60099;BME280;62818;49.394;8.686;2023-02-23T00:18:49;100042.56;;;10.78;100.00
60099;BME280;62818;49.394;8.686;2023-02-23T00:19:52;100037.81;;;10.88;100.00
60099;BME280;62818;49.394;8.686;2023-02-23T00:20:55;100038.25;;;10.91;100.00
60099;BME280;62818;49.394;8.686;2023-02-23T00:21:56;100044.19;;;10.93;100.00
60099;BME280;62818;49.394;8.686;2023-02-23T00:22:57;100037.47;;;11.12;100.00
60099;BME280;62818;49.394;8.686;2023-02-23T00:24:03;100035.31;;;11.22;100.00
60099;BME280;62818;49.394;8.686;2023-02-23T00:25:07;100032.53;;;11.30;100.00
60099;BME280;62818;49.394;8.686;2023-02-23T00:26:09;100034.44;;;11.15;100.00
60099;BME280;62818;49.394;8.686;2023-02-23T00:27:10;100031.16;;;11.13;100.00
60099;BME280;62818;49.394;8.686;2023-02-23T00:28:16;100028.63;;;11.05;100.00
60099;BME280;62818;49.394;8.686;2023-02-23T00:29:20;100039.66;;;11.08;100.00
60099;BME280;62818;49.394;8.686;2023-02-23T00:30:22;100036.31;;;11.00;100.00
60099;BME280;62818;49.394;8.686;2023-02-23T00:31:24;100035.53;;;11.06;100.00
60099;BME280;62818;49.394;8.686;2023-02-23T00:32:26;100037.88;;;10.94;100.00
60099;BME280;62818;49.394;8.686;2023-02-23T00:33:26;100035.31;;;11.01;100.00
60099;BME280;62818;49.394;8.686;2023-02-23T00:34:29;100032.25;;;11.04;100.00
60099;BME280;62818;49.394;8.686;2023-02-23T00:35:32;100030.84;;;11.01;100.00
60099;BME280;62818;49.394;8.686;2023-02-23T00:36:34;100038.03;;;11.07;100.00
60099;BME280;62818;49.394;8.686;2023-02-23T00:37:35;100032.25;;;11.04;100.00
60099;BME280;62818;49.394;8.686;2023-02-23T00:38:37;100040.06;;;10.91;100.00
60099;BME280;62818;49.394;8.686;2023-02-23T00:39:39;100031.31;;;10.90;100.00
60099;BME280;62818;49.394;8.686;2023-02-23T00:40:39;100024.31;;;11.04;100.00
60099;BME280;62818;49.394;8.686;2023-02-23T00:41:40;100031.91;;;11.07;100.00
60099;BME280;62818;49.394;8.686;2023-02-23T00:42:45;100030.63;;;11.03;100.00
60099;BME280;62818;49.394;8.686;2023-02-23T00:43:47;100030.84;;;10.87;100.00
60099;BME280;62818;49.394;8.686;2023-02-23T00:44:48;100029.84;;;10.88;100.00
60099;BME280;62818;49.394;8.686;2023-02-23T00:45:49;100036.84;;;11.10;100.00
60099;BME280;62818;49.394;8.686;2023-02-23T00:46:50;100037.41;;;10.91;100.00
60099;BME280;62818;49.394;8.686;2023-02-23T00:47:51;100027.97;;;11.03;100.00
60099;BME280;62818;49.394;8.686;2023-02-23T00:48:52;100030.16;;;10.99;100.00
60099;BME280;62818;49.394;8.686;2023-02-23T00:49:54;100029.38;;;10.99;100.00
60099;BME280;62818;49.394;8.686;2023-02-23T00:51:03;100028.00;;;10.88;100.00
60099;BME280;62818;49.394;8.686;2023-02-23T00:52:04;100028.19;;;11.01;100.00
60099;BME280;62818;49.394;8.686;2023-02-23T00:53:05;100037.81;;;10.88;100.00
60099;BME280;62818;49.394;8.686;2023-02-23T00:54:06;100027.44;;;11.07;100.00
60099;BME280;62818;49.394;8.686;2023-02-23T00:55:11;100034.44;;;11.15;100.00
60099;BME280;62818;49.394;8.686;2023-02-23T00:56:15;100033.47;;;11.01;100.00
60099;BME280;62818;49.394;8.686;2023-02-23T00:57:15;100035.50;;;10.85;100.00
60099;BME280;62818;49.394;8.686;2023-02-23T00:58:16;100029.47;;;10.91;100.00
60099;BME280;62818;49.394;8.686;2023-02-23T00:59:17;100034.41;;;10.94;100.00
60099;BME280;62818;49.394;8.686;2023-02-23T01:00:18;100031.28;;;11.05;100.00
60099;BME280;62818;49.394;8.686;2023-02-23T01:01:19;100034.00;;;11.11;100.00
60099;BME280;62818;49.394;8.686;2023-02-23T01:02:20;100035.47;;;10.99;100.00
60099;BME280;62818;49.394;8.686;2023-02-23T01:03:21;100026.22;;;11.10;100.00
60099;BME280;62818;49.394;8.686;2023-02-23T01:04:21;100032.25;;;11.04;100.00
60099;BME280;62818;49.394;8.686;2023-02-23T01:05:22;100034.91;;;11.04;100.00
60099;BME280;62818;49.394;8.686;2023-02-23T01:06:23;100029.44;;;11.05;100.00
60099;BME280;62818;49.394;8.686;2023-02-23T01:07:23;100030.63;;;11.03;100.00
60099;BME280;62818;49.394;8.686;2023-02-23T01:08:24;100033.38;;;11.09;100.00
60099;BME280;62818;49.394;8.686;2023-02-23T01:09:27;100038.41;;;11.04;100.00
60099;BME280;62818;49.394;8.686;2023-02-23T01:10:27;100038.81;;;10.87;100.00
60099;BME280;62818;49.394;8.686;2023-02-23T01:11:28;100031.59;;;10.81;100.00
60099;BME280;62818;49.394;8.686;2023-02-23T01:12:30;100035.41;;;10.93;100.00
60099;BME280;62818;49.394;8.686;2023-02-23T01:13:30;100039.28;;;10.76;100.00
60099;BME280;62818;49.394;8.686;2023-02-23T01:14:31;100038.91;;;10.79;100.00
60099;BME280;62818;49.394;8.686;2023-02-23T01:15:32;100040.47;;;10.73;100.00
60099;BME280;62818;49.394;8.686;2023-02-23T01:16:34;100038.00;;;10.72;100.00
60099;BME280;62818;49.394;8.686;2023-02-23T01:17:34;100030.56;;;10.82;100.00
60099;BME280;62818;49.394;8.686;2023-02-23T01:18:35;100034.69;;;10.99;100.00
60099;BME280;62818;49.394;8.686;2023-02-23T01:19:36;100035.50;;;10.85;100.00
60099;BME280;62818;49.394;8.686;2023-02-23T01:20:37;100028.16;;;10.66;100.00
60099;BME280;62818;49.394;8.686;2023-02-23T01:21:41;100032.16;;;10.62;100.00
60099;BME280;62818;49.394;8.686;2023-02-23T01:22:46;100029.97;;;10.51;100.00
60099;BME280;62818;49.394;8.686;2023-02-23T01:23:49;100035.28;;;10.51;100.00
60099;BME280;62818;49.394;8.686;2023-02-23T01:24:50;100033.28;;;10.53;100.00
60099;BME280;62818;49.394;8.686;2023-02-23T01:25:50;100036.91;;;10.52;100.00
60099;BME280;62818;49.394;8.686;2023-02-23T01:26:51;100036.56;;;10.55;100.00
60099;BME280;62818;49.394;8.686;2023-02-23T01:27:52;100037.56;;;10.54;100.00
60099;BME280;62818;49.394;8.686;2023-02-23T01:28:55;100036.16;;;10.58;100.00
60099;BME280;62818;49.394;8.686;2023-02-23T01:29:57;100037.84;;;10.44;100.00
60099;BME280;62818;49.394;8.686;2023-02-23T01:30:58;100029.81;;;10.37;100.00
60099;BME280;62818;49.394;8.686;2023-02-23T01:31:58;100041.69;;;10.41;100.00
60099;BME280;62818;49.394;8.686;2023-02-23T01:32:59;100039.66;;;10.43;100.00
60099;BME280;62818;49.394;8.686;2023-02-23T01:34:02;100042.22;;;10.52;100.00
60099;BME280;62818;49.394;8.686;2023-02-23T01:35:07;100040.13;;;10.32;100.00
60099;BME280;62818;49.394;8.686;2023-02-23T01:36:09;100034.53;;;10.42;100.00
60099;BME280;62818;49.394;8.686;2023-02-23T01:37:09;100040.94;;;10.48;100.00
60099;BME280;62818;49.394;8.686;2023-02-23T01:38:10;100038.84;;;10.43;100.00
60099;BME280;62818;49.394;8.686;2023-02-23T01:39:13;100032.53;;;10.44;100.00
60099;BME280;62818;49.394;8.686;2023-02-23T01:40:19;100033.78;;;10.33;100.00
60099;BME280;62818;49.394;8.686;2023-02-23T01:41:30;100038.81;;;10.58;100.00
60099;BME280;62818;49.394;8.686;2023-02-23T01:42:36;100036.44;;;10.33;100.00
60099;BME280;62818;49.394;8.686;2023-02-23T01:44:01;100033.44;;;10.36;100.00
60099;BME280;62818;49.394;8.686;2023-02-23T01:46:35;100027.97;;;10.23;100.00
60099;BME280;62818;49.394;8.686;2023-02-23T01:47:40;100032.81;;;10.34;100.00
60099;BME280;62818;49.394;8.686;2023-02-23T01:48:41;100029.09;;;10.06;100.00
60099;BME280;62818;49.394;8.686;2023-02-23T01:49:41;100035.47;;;10.34;100.00
60099;BME280;62818;49.394;8.686;2023-02-23T01:51:05;100032.91;;;10.26;100.00
60099;BME280;62818;49.394;8.686;2023-02-23T01:52:12;100031.72;;;10.43;100.00
60099;BME280;62818;49.394;8.686;2023-02-23T01:53:16;100028.25;;;10.28;100.00
60099;BME280;62818;49.394;8.686;2023-02-23T01:54:20;100023.50;;;10.24;100.00
60099;BME280;62818;49.394;8.686;2023-02-23T01:55:43;100027.88;;;10.17;100.00
60099;BME280;62818;49.394;8.686;2023-02-23T01:56:48;100031.38;;;10.09;100.00
60099;BME280;62818;49.394;8.686;2023-02-23T01:58:04;100031.06;;;10.12;100.00
60099;BME280;62818;49.394;8.686;2023-02-23T01:59:15;100031.25;;;10.25;100.00
60099;BME280;62818;49.394;8.686;2023-02-23T02:00:17;100018.19;;;10.24;100.00
60099;BME280;62818;49.394;8.686;2023-02-23T02:01:19;100026.88;;;10.32;100.00
60099;BME280;62818;49.394;8.686;2023-02-23T02:02:23;100026.59;;;10.27;100.00
60099;BME280;62818;49.394;8.686;2023-02-23T02:03:39;100024.50;;;10.37;100.00
60099;BME280;62818;49.394;8.686;2023-02-23T02:04:43;100022.66;;;10.23;100.00
60099;BME280;62818;49.394;8.686;2023-02-23T02:05:45;100020.19;;;10.36;100.00
60099;BME280;62818;49.394;8.686;2023-02-23T02:06:49;100022.50;;;10.39;100.00
60099;BME280;62818;49.394;8.686;2023-02-23T02:07:53;100023.38;;;10.47;100.00
60099;BME280;62818;49.394;8.686;2023-02-23T02:09:10;100017.38;;;10.53;100.00
60099;BME280;62818;49.394;8.686;2023-02-23T02:10:16;100025.69;;;10.50;100.00
60099;BME280;62818;49.394;8.686;2023-02-23T02:11:37;100016.91;;;10.34;100.00
60099;BME280;62818;49.394;8.686;2023-02-23T02:12:47;100021.84;;;10.37;100.00
60099;BME280;62818;49.394;8.686;2023-02-23T02:13:53;100017.63;;;10.43;100.00
60099;BME280;62818;49.394;8.686;2023-02-23T02:15:03;100018.09;;;10.47;100.00
60099;BME280;62818;49.394;8.686;2023-02-23T02:16:16;100018.47;;;10.43;100.00
60099;BME280;62818;49.394;8.686;2023-02-23T02:17:45;100011.78;;;10.48;100.00
60099;BME280;62818;49.394;8.686;2023-02-23T02:19:20;100019.75;;;10.48;100.00
60099;BME280;62818;49.394;8.686;2023-02-23T02:32:44;100015.25;;;10.63;100.00
60099;BME280;62818;49.394;8.686;2023-02-23T02:37:44;100005.94;;;10.52;100.00
60099;BME280;62818;49.394;8.686;2023-02-23T02:40:43;100003.72;;;10.56;100.00
60099;BME280;62818;49.394;8.686;2023-02-23T02:43:25;99997.16;;;10.52;100.00
60099;BME280;62818;49.394;8.686;2023-02-23T02:46:36;99999.81;;;10.52;100.00
60099;BME280;62818;49.394;8.686;2023-02-23T02:47:48;100002.34;;;10.60;100.00
60099;BME280;62818;49.394;8.686;2023-02-23T02:49:22;100004.00;;;10.61;100.00
60099;BME280;62818;49.394;8.686;2023-02-23T02:50:38;100000.88;;;10.72;100.00
60099;BME280;62818;49.394;8.686;2023-02-23T02:51:59;100000.19;;;10.49;100.00
60099;BME280;62818;49.394;8.686;2023-02-23T02:53:10;100000.19;;;10.34;100.00
60099;BME280;62818;49.394;8.686;2023-02-23T02:54:24;99993.72;;;10.36;100.00
60099;BME280;62818;49.394;8.686;2023-02-23T02:55:33;99994.78;;;10.42;100.00
60099;BME280;62818;49.394;8.686;2023-02-23T02:56:40;99996.78;;;10.40;100.00
60099;BME280;62818;49.394;8.686;2023-02-23T02:57:45;99997.28;;;10.43;100.00
60099;BME280;62818;49.394;8.686;2023-02-23T02:58:46;99998.19;;;10.51;100.00
60099;BME280;62818;49.394;8.686;2023-02-23T02:59:49;99998.91;;;10.44;100.00
60099;BME280;62818;49.394;8.686;2023-02-23T03:01:12;100002.56;;;10.43;100.00
60099;BME280;62818;49.394;8.686;2023-02-23T03:02:36;99998.72;;;10.31;100.00
60099;BME280;62818;49.394;8.686;2023-02-23T03:03:58;99996.53;;;10.20;100.00
60099;BME280;62818;49.394;8.686;2023-02-23T03:05:26;99993.53;;;10.23;100.00
60099;BME280;62818;49.394;8.686;2023-02-23T03:06:58;99995.06;;;10.47;100.00
60099;BME280;62818;49.394;8.686;2023-02-23T03:12:10;99993.91;;;10.35;100.00
60099;BME280;62818;49.394;8.686;2023-02-23T03:17:35;99988.47;;;10.58;100.00
60099;BME280;62818;49.394;8.686;2023-02-23T03:19:36;99986.09;;;10.63;100.00
60099;BME280;62818;49.394;8.686;2023-02-23T03:21:30;99993.69;;;10.51;100.00
60099;BME280;62818;49.394;8.686;2023-02-23T03:23:48;99990.88;;;10.23;100.00
60099;BME280;62818;49.394;8.686;2023-02-23T03:25:02;99984.84;;;10.29;100.00
60099;BME280;62818;49.394;8.686;2023-02-23T03:26:49;99997.81;;;10.24;100.00
60099;BME280;62818;49.394;8.686;2023-02-23T03:28:17;99992.25;;;10.34;100.00
60099;BME280;62818;49.394;8.686;2023-02-23T03:29:57;99994.34;;;10.38;100.00
60099;BME280;62818;49.394;8.686;2023-02-23T03:31:45;99990.88;;;10.53;100.00
60099;BME280;62818;49.394;8.686;2023-02-23T03:33:18;99994.16;;;10.40;100.00
60099;BME280;62818;49.394;8.686;2023-02-23T03:39:10;99992.16;;;10.27;100.00
60099;BME280;62818;49.394;8.686;2023-02-23T03:40:33;99990.66;;;10.10;100.00
60099;BME280;62818;49.394;8.686;2023-02-23T03:41:57;99996.91;;;10.17;100.00
60099;BME280;62818;49.394;8.686;2023-02-23T03:43:26;99995.91;;;10.33;100.00
60099;BME280;62818;49.394;8.686;2023-02-23T03:44:51;100001.47;;;10.23;100.00
60099;BME280;62818;49.394;8.686;2023-02-23T03:46:15;99999.81;;;10.22;100.00
60099;BME280;62818;49.394;8.686;2023-02-23T03:47:40;99994.78;;;10.27;100.00
60099;BME280;62818;49.394;8.686;2023-02-23T03:49:03;99995.53;;;10.51;100.00
60099;BME280;62818;49.394;8.686;2023-02-23T03:50:44;99994.69;;;10.35;100.00
60099;BME280;62818;49.394;8.686;2023-02-23T03:52:16;100002.66;;;10.21;100.00
60099;BME280;62818;49.394;8.686;2023-02-23T03:53:52;99996.38;;;10.22;100.00
60099;BME280;62818;49.394;8.686;2023-02-23T03:55:21;99996.25;;;10.30;100.00
60099;BME280;62818;49.394;8.686;2023-02-23T03:56:47;99999.47;;;10.25;100.00
60099;BME280;62818;49.394;8.686;2023-02-23T03:58:12;99997.44;;;10.27;100.00
60099;BME280;62818;49.394;8.686;2023-02-23T03:59:43;100000.56;;;10.31;100.00
60099;BME280;62818;49.394;8.686;2023-02-23T04:01:10;99993.53;;;10.23;100.00
60099;BME280;62818;49.394;8.686;2023-02-23T04:02:33;99998.47;;;10.26;100.00
60099;BME280;62818;49.394;8.686;2023-02-23T04:03:56;99995.44;;;10.29;100.00
60099;BME280;62818;49.394;8.686;2023-02-23T04:05:18;100008.78;;;10.21;100.00
60099;BME280;62818;49.394;8.686;2023-02-23T04:06:43;100006.03;;;10.29;100.00
60099;BME280;62818;49.394;8.686;2023-02-23T04:08:08;99998.91;;;10.15;100.00
60099;BME280;62818;49.394;8.686;2023-02-23T04:09:31;100002.56;;;10.14;100.00
60099;BME280;62818;49.394;8.686;2023-02-23T04:11:20;100005.22;;;10.14;100.00
60099;BME280;62818;49.394;8.686;2023-02-23T04:12:55;100006.19;;;10.13;100.00
60099;BME280;62818;49.394;8.686;2023-02-23T04:14:19;100006.03;;;10.15;100.00
60099;BME280;62818;49.394;8.686;2023-02-23T04:15:53;100002.91;;;10.11;100.00
60099;BME280;62818;49.394;8.686;2023-02-23T04:16:57;100001.38;;;10.17;100.00
60099;BME280;62818;49.394;8.686;2023-02-23T04:17:58;100003.63;;;10.05;100.00
60099;BME280;62818;49.394;8.686;2023-02-23T04:18:59;100003.50;;;9.99;100.00
60099;BME280;62818;49.394;8.686;2023-02-23T04:20:00;100001.72;;;10.14;100.00
60099;BME280;62818;49.394;8.686;2023-02-23T04:21:01;100004.25;;;10.07;100.00
60099;BME280;62818;49.394;8.686;2023-02-23T04:22:03;99998.91;;;10.15;100.00
60099;BME280;62818;49.394;8.686;2023-02-23T04:23:04;100011.94;;;10.02;100.00
60099;BME280;62818;49.394;8.686;2023-02-23T04:24:04;99999.94;;;9.92;100.00
60099;BME280;62818;49.394;8.686;2023-02-23T04:25:05;100001.16;;;10.04;100.00
60099;BME280;62818;49.394;8.686;2023-02-23T04:26:08;100007.63;;;10.01;100.00
60099;BME280;62818;49.394;8.686;2023-02-23T04:27:08;100006.53;;;10.10;100.00
60099;BME280;62818;49.394;8.686;2023-02-23T04:28:09;100003.19;;;10.16;100.00
60099;BME280;62818;49.394;8.686;2023-02-23T04:29:11;100002.91;;;10.11;100.00
60099;BME280;62818;49.394;8.686;2023-02-23T04:30:11;100000.53;;;10.16;100.00
60099;BME280;62818;49.394;8.686;2023-02-23T04:31:12;100009.78;;;10.20;100.00
60099;BME280;62818;49.394;8.686;2023-02-23T04:32:15;100008.78;;;10.21;100.00
60099;BME280;62818;49.394;8.686;2023-02-23T04:33:18;100005.00;;;10.16;100.00
60099;BME280;62818;49.394;8.686;2023-02-23T04:34:21;100006.19;;;10.13;100.00
60099;BME280;62818;49.394;8.686;2023-02-23T04:35:21;100007.13;;;10.20;100.00
60099;BME280;62818;49.394;8.686;2023-02-23T04:36:22;99999.97;;;10.06;100.00
60099;BME280;62818;49.394;8.686;2023-02-23T04:37:23;100004.31;;;10.22;100.00
60099;BME280;62818;49.394;8.686;2023-02-23T04:38:24;100007.28;;;10.04;100.00
60099;BME280;62818;49.394;8.686;2023-02-23T04:39:24;100008.81;;;9.99;100.00
60099;BME280;62818;49.394;8.686;2023-02-23T04:40:25;99999.16;;;10.06;100.00
60099;BME280;62818;49.394;8.686;2023-02-23T04:41:26;99999.88;;;10.00;100.00
60099;BME280;62818;49.394;8.686;2023-02-23T04:42:27;100003.38;;;10.15;100.00
60099;BME280;62818;49.394;8.686;2023-02-23T04:43:27;100005.09;;;10.22;100.00
60099;BME280;62818;49.394;8.686;2023-02-23T04:44:28;100002.22;;;10.17;100.00
60099;BME280;62818;49.394;8.686;2023-02-23T04:45:29;100003.75;;;10.12;100.00
60099;BME280;62818;49.394;8.686;2023-02-23T04:46:29;100004.25;;;10.07;100.00
60099;BME280;62818;49.394;8.686;2023-02-23T04:47:30;100011.75;;;10.04;100.00
60099;BME280;62818;49.394;8.686;2023-02-23T04:48:31;100005.28;;;10.06;100.00
60099;BME280;62818;49.394;8.686;2023-02-23T04:49:31;100011.25;;;10.00;100.00
60099;BME280;62818;49.394;8.686;2023-02-23T04:50:32;100001.25;;;10.10;100.00
60099;BME280;62818;49.394;8.686;2023-02-23T04:51:33;100002.22;;;10.17;100.00
60099;BME280;62818;49.394;8.686;2023-02-23T04:52:36;99998.78;;;10.09;100.00
60099;BME280;62818;49.394;8.686;2023-02-23T04:53:38;100001.59;;;10.07;100.00
60099;BME280;62818;49.394;8.686;2023-02-23T04:54:39;100004.75;;;10.11;100.00
60099;BME280;62818;49.394;8.686;2023-02-23T04:55:40;100007.28;;;10.04;100.00
60099;BME280;62818;49.394;8.686;2023-02-23T04:56:41;100002.56;;;10.14;100.00
60099;BME280;62818;49.394;8.686;2023-02-23T04:57:41;100006.91;;;10.07;100.00
60099;BME280;62818;49.394;8.686;2023-02-23T04:58:42;100009.53;;;10.07;100.00
60099;BME280;62818;49.394;8.686;2023-02-23T04:59:43;100012.94;;;10.01;100.00
60099;BME280;62818;49.394;8.686;2023-02-23T05:00:43;100016.66;;;10.07;100.00
60099;BME280;62818;49.394;8.686;2023-02-23T05:01:44;100018.84;;;10.03;100.00
60099;BME280;62818;49.394;8.686;2023-02-23T05:02:45;100017.63;;;10.14;100.00
60099;BME280;62818;49.394;8.686;2023-02-23T05:03:45;100012.16;;;10.15;100.00
60099;BME280;62818;49.394;8.686;2023-02-23T05:04:46;100009.53;;;10.07;100.00
60099;BME280;62818;49.394;8.686;2023-02-23T05:05:46;100010.56;;;10.06;100.00
60099;BME280;62818;49.394;8.686;2023-02-23T05:06:47;100023.31;;;10.03;100.00
60099;BME280;62818;49.394;8.686;2023-02-23T05:07:47;100016.22;;;10.03;100.00
60099;BME280;62818;49.394;8.686;2023-02-23T05:08:48;100017.59;;;9.99;100.00
60099;BME280;62818;49.394;8.686;2023-02-23T05:09:48;100013.16;;;10.14;100.00
60099;BME280;62818;49.394;8.686;2023-02-23T05:10:49;100016.44;;;10.16;100.00
60099;BME280;62818;49.394;8.686;2023-02-23T05:11:49;100013.47;;;9.97;100.00
60099;BME280;62818;49.394;8.686;2023-02-23T05:12:50;100017.66;;;9.91;100.00
60099;BME280;62818;49.394;8.686;2023-02-23T05:13:50;100017.19;;;9.88;100.00
60099;BME280;62818;49.394;8.686;2023-02-23T05:14:51;100026.94;;;9.87;100.00
60099;BME280;62818;49.394;8.686;2023-02-23T05:15:55;100014.91;;;9.85;100.00
60099;BME280;62818;49.394;8.686;2023-02-23T05:16:56;100015.13;;;9.98;100.00
60099;BME280;62818;49.394;8.686;2023-02-23T05:17:57;100021.78;;;10.08;100.00
60099;BME280;62818;49.394;8.686;2023-02-23T05:18:57;100012.94;;;10.01;100.00
60099;BME280;62818;49.394;8.686;2023-02-23T05:19:58;100024.25;;;9.95;100.00
60099;BME280;62818;49.394;8.686;2023-02-23T05:21:03;100024.94;;;9.89;100.00
60099;BME280;62818;49.394;8.686;2023-02-23T05:22:08;100019.66;;;9.89;100.00
60099;BME280;62818;49.394;8.686;2023-02-23T05:23:12;100014.84;;;9.93;100.00
60099;BME280;62818;49.394;8.686;2023-02-23T05:24:13;100025.66;;;9.83;100.00
60099;BME280;62818;49.394;8.686;2023-02-23T05:25:14;100026.25;;;9.93;100.00
60099;BME280;62818;49.394;8.686;2023-02-23T05:26:15;100018.00;;;9.88;100.00
60099;BME280;62818;49.394;8.686;2023-02-23T05:27:16;100019.50;;;9.91;100.00
60099;BME280;62818;49.394;8.686;2023-02-23T05:28:17;100019.75;;;9.96;100.00
60099;BME280;62818;49.394;8.686;2023-02-23T05:29:17;100020.53;;;10.04;100.00
60099;BME280;62818;49.394;8.686;2023-02-23T05:30:18;100023.50;;;10.01;100.00
60099;BME280;62818;49.394;8.686;2023-02-23T05:31:18;100012.56;;;10.04;100.00
60099;BME280;62818;49.394;8.686;2023-02-23T05:32:19;100017.94;;;9.96;100.00
60099;BME280;62818;49.394;8.686;2023-02-23T05:33:19;100014.63;;;9.94;100.00
60099;BME280;62818;49.394;8.686;2023-02-23T05:34:21;100016.84;;;10.05;100.00
60099;BME280;62818;49.394;8.686;2023-02-23T05:35:21;100019.75;;;9.96;100.00
60099;BME280;62818;49.394;8.686;2023-02-23T05:36:22;100022.34;;;10.04;100.00
60099;BME280;62818;49.394;8.686;2023-02-23T05:37:22;100016.56;;;10.00;100.00
60099;BME280;62818;49.394;8.686;2023-02-23T05:38:24;100020.41;;;9.98;100.00
60099;BME280;62818;49.394;8.686;2023-02-23T05:39:24;100012.47;;;9.98;100.00
60099;BME280;62818;49.394;8.686;2023-02-23T05:40:25;100012.94;;;10.01;100.00
60099;BME280;62818;49.394;8.686;2023-02-23T05:41:25;100012.50;;;10.12;100.00
60099;BME280;62818;49.394;8.686;2023-02-23T05:42:26;100020.56;;;9.96;100.00
60099;BME280;62818;49.394;8.686;2023-02-23T05:43:26;100010.38;;;9.93;100.00
60099;BME280;62818;49.394;8.686;2023-02-23T05:44:27;100019.03;;;10.02;100.00
60099;BME280;62818;49.394;8.686;2023-02-23T05:45:28;100007.72;;;10.08;100.00
60099;BME280;62818;49.394;8.686;2023-02-23T05:46:28;100020.13;;;10.07;100.00
60099;BME280;62818;49.394;8.686;2023-02-23T05:47:30;100013.50;;;10.11;100.00
60099;BME280;62818;49.394;8.686;2023-02-23T05:48:31;100014.50;;;10.10;100.00
60099;BME280;62818;49.394;8.686;2023-02-23T05:49:33;100004.22;;;10.15;100.00
60099;BME280;62818;49.394;8.686;2023-02-23T05:50:33;100020.47;;;10.12;100.00
60099;BME280;62818;49.394;8.686;2023-02-23T05:51:34;100014.06;;;10.21;100.00
60099;BME280;62818;49.394;8.686;2023-02-23T05:52:36;100015.44;;;10.17;100.00
60099;BME280;62818;49.394;8.686;2023-02-23T05:53:40;100018.31;;;9.93;100.00
60099;BME280;62818;49.394;8.686;2023-02-23T05:54:40;100014.13;;;10.13;100.00
60099;BME280;62818;49.394;8.686;2023-02-23T05:55:41;100021.84;;;10.00;100.00
60099;BME280;62818;49.394;8.686;2023-02-23T05:56:41;100018.56;;;9.98;100.00
60099;BME280;62818;49.394;8.686;2023-02-23T05:57:42;100025.28;;;10.09;100.00
60099;BME280;62818;49.394;8.686;2023-02-23T05:58:47;100015.16;;;10.12;100.00
60099;BME280;62818;49.394;8.686;2023-02-23T05:59:49;100019.88;;;10.02;100.00
60099;BME280;62818;49.394;8.686;2023-02-23T06:00:49;100017.13;;;10.10;100.00
60099;BME280;62818;49.394;8.686;2023-02-23T06:01:50;100009.50;;;10.15;100.00
60099;BME280;62818;49.394;8.686;2023-02-23T06:02:51;100007.84;;;10.14;100.00
60099;BME280;62818;49.394;8.686;2023-02-23T06:03:53;100009.28;;;10.02;100.00
60099;BME280;62818;49.394;8.686;2023-02-23T06:04:53;100013.84;;;10.08;100.00
60099;BME280;62818;49.394;8.686;2023-02-23T06:05:56;100013.75;;;10.02;100.00
60099;BME280;62818;49.394;8.686;2023-02-23T06:06:58;100014.84;;;9.93;100.00
60099;BME280;62818;49.394;8.686;2023-02-23T06:07:58;100017.66;;;9.91;100.00
60099;BME280;62818;49.394;8.686;2023-02-23T06:08:59;100018.22;;;10.01;100.00
60099;BME280;62818;49.394;8.686;2023-02-23T06:09:59;100014.59;;;10.02;100.00
60099;BME280;62818;49.394;8.686;2023-02-23T06:11:00;100017.38;;;10.23;100.00
60099;BME280;62818;49.394;8.686;2023-02-23T06:12:00;100011.97;;;10.17;100.00
60099;BME280;62818;49.394;8.686;2023-02-23T06:13:01;100016.00;;;10.13;100.00
60099;BME280;62818;49.394;8.686;2023-02-23T06:14:02;100009.22;;;10.25;100.00
60099;BME280;62818;49.394;8.686;2023-02-23T06:15:03;100017.28;;;10.17;100.00
60099;BME280;62818;49.394;8.686;2023-02-23T06:16:04;100019.50;;;10.05;100.00
60099;BME280;62818;49.394;8.686;2023-02-23T06:17:06;100011.50;;;10.13;100.00
60099;BME280;62818;49.394;8.686;2023-02-23T06:18:06;100026.06;;;10.09;100.00
60099;BME280;62818;49.394;8.686;2023-02-23T06:19:10;100012.06;;;10.23;100.00
60099;BME280;62818;49.394;8.686;2023-02-23T06:20:11;100014.81;;;10.15;100.00
60099;BME280;62818;49.394;8.686;2023-02-23T06:21:12;100019.63;;;10.12;100.00
60099;BME280;62818;49.394;8.686;2023-02-23T06:22:14;100009.88;;;10.12;100.00